createdAt,value
2022-11-16T00:01:47.989Z,11.18
2022-11-16T00:04:15.321Z,10.88
2022-11-16T00:06:42.551Z,10.45
2022-11-16T00:09:24.893Z,10.85
2022-11-16T00:12:02.270Z,12.80
2022-11-16T00:14:35.015Z,10.55
2022-11-16T00:17:04.051Z,11.32
2022-11-16T00:19:31.618Z,11.85
2022-11-16T00:22:00.110Z,13.48
2022-11-16T00:24:27.371Z,12.85
2022-11-16T00:26:56.164Z,11.32
2022-11-16T00:29:27.284Z,12.55
2022-11-16T00:31:55.536Z,11.05
2022-11-16T00:34:23.967Z,12.65
2022-11-16T00:36:51.656Z,12.40
2022-11-16T00:39:19.893Z,12.23
2022-11-16T00:41:48.845Z,14.15
2022-11-16T00:44:16.476Z,12.45
2022-11-16T00:46:43.752Z,13.63
2022-11-16T00:49:11.558Z,13.80
2022-11-16T00:51:38.800Z,16.92
2022-11-16T00:54:08.956Z,15.15
2022-11-16T00:56:37.986Z,14.50
2022-11-16T00:59:06.899Z,16.10
2022-11-16T01:01:34.659Z,14.10
2022-11-16T01:04:02.105Z,15.32
2022-11-16T01:06:29.325Z,15.13
2022-11-16T01:08:56.681Z,16.45
2022-11-16T01:11:50.405Z,15.18
2022-11-16T01:14:18.366Z,13.77
2022-11-16T01:16:49.548Z,14.95
2022-11-16T01:19:16.721Z,18.20
2022-11-16T01:21:43.916Z,15.18
2022-11-16T01:24:11.316Z,13.88
2022-11-16T01:26:38.688Z,15.60
2022-11-16T01:29:06.607Z,16.55
2022-11-16T01:31:38.623Z,15.07
2022-11-16T01:34:05.882Z,15.73
2022-11-16T01:36:33.257Z,15.07
2022-11-16T01:39:05.002Z,15.98
2022-11-16T01:41:44.314Z,17.52
2022-11-16T01:44:33.303Z,17.80
2022-11-16T01:47:17.468Z,13.55
2022-11-16T01:49:56.010Z,15.35
2022-11-16T01:52:35.981Z,14.45
2022-11-16T01:55:04.423Z,17.15
2022-11-16T01:57:47.495Z,15.27
2022-11-16T02:00:17.115Z,14.50
2022-11-16T02:02:54.432Z,18.55
2022-11-16T02:06:20.084Z,14.75
2022-11-16T02:09:38.531Z,16.55
2022-11-16T02:13:07.473Z,15.82
2022-11-16T02:16:07.993Z,15.57
2022-11-16T02:19:22.732Z,17.38
2022-11-16T02:22:27.362Z,17.95
2022-11-16T02:25:22.718Z,20.52
2022-11-16T02:28:25.437Z,18.00
2022-11-16T02:30:57.810Z,17.25
2022-11-16T02:33:36.923Z,21.08
2022-11-16T02:36:13.811Z,18.65
2022-11-16T02:38:51.627Z,20.83
2022-11-16T02:41:25.307Z,18.73
2022-11-16T02:44:13.882Z,18.65
2022-11-16T02:46:48.631Z,20.42
2022-11-16T02:49:19.584Z,20.25
2022-11-16T02:51:48.008Z,17.67
2022-11-16T02:54:20.440Z,20.45
2022-11-16T02:57:03.584Z,22.40
2022-11-16T02:59:41.964Z,18.98
2022-11-16T03:02:50.422Z,25.02
2022-11-16T03:08:16.999Z,20.65
2022-11-16T03:11:12.416Z,18.70
2022-11-16T03:13:41.962Z,20.67
2022-11-16T03:16:38.496Z,17.23
2022-11-16T03:19:13.066Z,20.42
2022-11-16T03:22:00.414Z,15.93
2022-11-16T03:27:13.225Z,14.77
2022-11-16T03:30:05.944Z,17.00
2022-11-16T03:33:02.482Z,12.88
2022-11-16T03:35:56.689Z,15.98
2022-11-16T03:38:27.879Z,13.38
2022-11-16T03:41:06.458Z,13.48
2022-11-16T03:43:36.423Z,15.55
2022-11-16T03:46:05.742Z,11.90
2022-11-16T03:48:39.939Z,10.60
2022-11-16T03:51:14.201Z,11.82
2022-11-16T03:53:42.852Z,11.90
2022-11-16T03:56:11.471Z,10.32
2022-11-16T03:58:39.525Z,11.85
2022-11-16T04:01:06.927Z,10.10
2022-11-16T04:03:34.270Z,11.07
2022-11-16T04:06:20.086Z,12.70
2022-11-16T04:09:06.042Z,11.52
2022-11-16T04:11:54.703Z,11.45
2022-11-16T04:14:44.905Z,11.48
2022-11-16T04:17:36.314Z,13.65
2022-11-16T04:20:24.291Z,9.70
2022-11-16T04:23:33.686Z,10.35
2022-11-16T04:26:06.334Z,8.10
2022-11-16T04:28:35.891Z,9.52
2022-11-16T04:31:25.156Z,7.85
2022-11-16T04:34:19.513Z,7.90
2022-11-16T04:37:09.802Z,6.68
2022-11-16T04:39:37.020Z,5.68
2022-11-16T04:42:17.314Z,6.18
2022-11-16T04:45:05.487Z,6.93
2022-11-16T04:47:45.396Z,5.93
2022-11-16T04:50:12.676Z,6.40
2022-11-16T04:52:41.364Z,6.63
2022-11-16T04:55:13.021Z,8.30
2022-11-16T04:57:40.629Z,5.40
2022-11-16T05:00:09.987Z,6.00
2022-11-16T05:02:39.811Z,6.55
2022-11-16T05:05:09.143Z,7.90
2022-11-16T05:07:38.892Z,6.18
2022-11-16T05:10:14.060Z,8.77
2022-11-16T05:12:41.899Z,5.18
2022-11-16T05:15:11.255Z,6.18
2022-11-16T05:17:39.809Z,5.50
2022-11-16T05:20:30.969Z,8.15
2022-11-16T05:23:03.379Z,4.82
2022-11-16T05:25:39.537Z,6.35
2022-11-16T05:28:10.646Z,10.50
2022-11-16T05:30:41.031Z,5.35
2022-11-16T05:33:08.412Z,5.68
2022-11-16T05:35:39.633Z,7.20
2022-11-16T05:38:07.339Z,5.82
2022-11-16T05:40:39.349Z,7.18
2022-11-16T05:43:06.958Z,7.72
2022-11-16T05:45:39.983Z,7.28
2022-11-16T05:48:09.153Z,11.30
2022-11-16T05:50:42.377Z,5.95
2022-11-16T05:53:20.164Z,6.05
2022-11-16T05:55:48.475Z,7.60
2022-11-16T05:58:15.780Z,6.22
2022-11-16T06:00:43.060Z,6.82
2022-11-16T06:03:11.370Z,6.97
2022-11-16T06:05:40.662Z,7.53
2022-11-16T06:08:09.826Z,7.95
2022-11-16T06:10:37.113Z,7.38
2022-11-16T06:13:05.532Z,6.22
2022-11-16T06:15:38.588Z,8.10
2022-11-16T06:18:09.019Z,5.85
2022-11-16T06:20:40.129Z,8.65
2022-11-16T06:23:07.923Z,8.73
2022-11-16T06:25:39.856Z,7.78
2022-11-16T06:28:08.281Z,7.75
2022-11-16T06:30:38.481Z,11.45
2022-11-16T06:33:08.005Z,9.63
2022-11-16T06:35:35.387Z,10.60
2022-11-16T06:38:03.795Z,9.00
2022-11-16T06:40:32.711Z,9.82
2022-11-16T06:43:02.947Z,9.40
2022-11-16T06:45:30.227Z,7.75
2022-11-16T06:48:00.212Z,9.07
2022-11-16T06:50:27.495Z,9.23
2022-11-16T06:52:55.112Z,9.85
2022-11-16T06:55:23.420Z,11.75
2022-11-16T06:57:50.701Z,9.50
2022-11-16T07:00:18.728Z,10.27
2022-11-16T07:02:47.663Z,13.05
2022-11-16T07:05:18.045Z,11.85
2022-11-16T07:07:47.053Z,10.02
2022-11-16T07:10:14.478Z,8.77
2022-11-16T07:12:43.047Z,11.18
2022-11-16T07:15:11.212Z,8.05
2022-11-16T07:17:42.444Z,9.68
2022-11-16T07:20:12.007Z,10.77
2022-11-16T07:22:39.933Z,12.25
2022-11-16T07:25:08.593Z,9.30
2022-11-16T07:27:35.828Z,13.30
2022-11-16T07:30:05.592Z,9.25
2022-11-16T07:32:59.556Z,12.88
2022-11-16T07:35:46.906Z,12.77
2022-11-16T07:38:17.787Z,15.52
2022-11-16T07:40:46.488Z,10.80
2022-11-16T07:43:18.797Z,12.30
2022-11-16T07:46:46.405Z,14.75
2022-11-16T07:49:18.156Z,10.63
2022-11-16T07:52:11.178Z,9.20
2022-11-16T07:54:55.413Z,11.88
2022-11-16T07:57:25.330Z,12.13
2022-11-16T07:59:54.459Z,11.13
2022-11-16T08:02:21.659Z,13.15
2022-11-16T08:04:51.086Z,9.55
2022-11-16T08:07:26.407Z,20.85
2022-11-16T08:09:56.684Z,13.77
2022-11-16T08:12:24.502Z,11.43
2022-11-16T08:14:52.825Z,11.13
2022-11-16T08:17:20.325Z,9.10
2022-11-16T08:19:48.013Z,14.05
2022-11-16T08:22:16.769Z,9.25
2022-11-16T08:24:45.827Z,11.13
2022-11-16T08:27:15.372Z,12.45
2022-11-16T08:29:44.173Z,12.75
2022-11-16T08:32:11.510Z,10.80
2022-11-16T08:34:38.778Z,9.10
2022-11-16T08:37:06.701Z,9.63
2022-11-16T08:39:43.942Z,6.43
2022-11-16T08:42:11.474Z,5.80
2022-11-16T08:44:39.816Z,12.50
2022-11-16T08:47:11.676Z,8.45
2022-11-16T08:49:51.435Z,8.90
2022-11-16T08:52:20.565Z,8.73
2022-11-16T08:54:49.766Z,11.05
2022-11-16T08:57:17.649Z,11.95
2022-11-16T08:59:48.191Z,10.35
2022-11-16T09:02:15.408Z,14.80
2022-11-16T09:04:43.804Z,7.50
2022-11-16T09:07:11.117Z,12.40
2022-11-16T09:09:38.338Z,9.30
2022-11-16T09:12:05.916Z,12.15
2022-11-16T09:14:33.295Z,8.70
2022-11-16T09:17:00.473Z,12.50
2022-11-16T09:19:27.626Z,7.38
2022-11-16T09:21:54.769Z,6.93
2022-11-16T09:24:22.019Z,9.77
2022-11-16T09:26:49.289Z,8.32
2022-11-16T09:29:16.627Z,9.82
2022-11-16T09:31:44.756Z,7.13
2022-11-16T09:34:12.065Z,8.32
2022-11-16T09:36:39.267Z,7.18
2022-11-16T09:42:29.674Z,7.55
2022-11-16T09:45:23.182Z,13.57
2022-11-16T09:47:59.339Z,6.72
2022-11-16T09:51:08.196Z,6.73
2022-11-16T09:56:37.682Z,4.60
2022-11-16T09:59:29.338Z,9.02
2022-11-16T10:02:19.533Z,8.88
2022-11-16T10:05:08.564Z,7.75
2022-11-16T10:08:13.417Z,9.95
2022-11-16T10:11:25.639Z,7.55
2022-11-16T10:14:27.805Z,6.65
2022-11-16T10:17:11.251Z,8.70
2022-11-16T10:21:02.090Z,8.90
2022-11-16T10:30:21.914Z,8.40
2022-11-16T10:33:10.977Z,8.05
2022-11-16T10:35:47.915Z,11.82
2022-11-16T10:38:25.619Z,5.35
2022-11-16T10:41:03.165Z,6.68
2022-11-16T10:43:33.766Z,7.82
2022-11-16T10:46:40.243Z,9.65
2022-11-16T10:49:53.135Z,11.13
2022-11-16T10:52:20.445Z,8.90
2022-11-16T10:54:47.670Z,5.95
2022-11-16T10:57:14.944Z,6.85
2022-11-16T10:59:55.577Z,10.50
2022-11-16T11:02:33.595Z,5.88
2022-11-16T11:05:21.437Z,5.15
2022-11-16T11:08:02.465Z,7.72
2022-11-16T11:10:32.657Z,9.77
2022-11-16T11:13:11.892Z,6.57
2022-11-16T11:15:44.659Z,8.05
2022-11-16T11:18:25.654Z,9.52
2022-11-16T11:21:17.176Z,10.40
2022-11-16T11:24:02.302Z,9.55
2022-11-16T11:26:41.698Z,11.02
2022-11-16T11:29:27.037Z,6.53
2022-11-16T11:32:05.722Z,7.57
2022-11-16T11:34:48.523Z,11.95
2022-11-16T11:37:25.572Z,6.90
2022-11-16T11:40:27.946Z,8.68
2022-11-16T11:43:06.633Z,6.85
2022-11-16T11:45:47.755Z,9.48
2022-11-16T11:49:00.041Z,8.52
2022-11-16T11:51:40.528Z,5.63
2022-11-16T11:54:22.326Z,4.38
2022-11-16T11:56:49.512Z,8.25
2022-11-16T11:59:24.061Z,7.25
2022-11-16T12:02:33.398Z,8.93
2022-11-16T12:05:45.612Z,8.45
2022-11-16T12:08:33.675Z,5.53
2022-11-16T12:12:01.773Z,5.32
2022-11-16T12:15:19.306Z,4.93
2022-11-16T12:18:32.664Z,9.52
2022-11-16T12:21:17.637Z,7.47
2022-11-16T12:24:06.381Z,6.90
2022-11-16T12:27:27.095Z,6.63
2022-11-16T12:30:10.451Z,10.00
2022-11-16T12:32:52.967Z,5.65
2022-11-16T12:36:06.359Z,5.65
2022-11-16T12:39:00.316Z,6.28
2022-11-16T12:41:58.836Z,9.30
2022-11-16T12:44:43.963Z,7.43
2022-11-16T12:47:55.429Z,5.10
2022-11-16T12:51:02.857Z,5.28
2022-11-16T12:54:25.832Z,5.45
2022-11-16T12:57:35.637Z,6.25
2022-11-16T13:00:11.967Z,7.00
2022-11-16T13:03:21.596Z,6.13
2022-11-16T13:06:06.685Z,8.32
2022-11-16T13:09:11.073Z,5.63
2022-11-16T13:11:58.169Z,3.90
2022-11-16T13:14:53.386Z,3.35
2022-11-16T13:17:32.812Z,9.35
2022-11-16T13:20:34.947Z,8.93
2022-11-16T13:23:18.397Z,5.45
2022-11-16T13:26:23.912Z,6.22
2022-11-16T13:29:28.567Z,5.45
2022-11-16T13:32:29.570Z,6.50
2022-11-16T13:35:05.180Z,5.63
2022-11-16T13:37:38.479Z,7.25
2022-11-16T13:40:05.574Z,7.13
2022-11-16T13:42:57.420Z,7.95
2022-11-16T13:45:29.123Z,6.10
2022-11-16T13:48:00.647Z,6.40
2022-11-16T13:50:48.723Z,8.27
2022-11-16T13:54:25.077Z,8.90
2022-11-16T13:56:28.361Z,7.97
2022-11-16T13:58:58.281Z,9.57
2022-11-16T14:01:26.733Z,7.20
2022-11-16T14:05:04.864Z,9.98
2022-11-16T14:07:51.653Z,6.40
2022-11-16T14:10:33.991Z,6.90
2022-11-16T14:13:26.324Z,6.25
2022-11-16T14:16:22.729Z,6.53
2022-11-16T14:19:00.556Z,18.10
2022-11-16T14:22:00.075Z,7.47
2022-11-16T14:24:50.705Z,12.57
2022-11-16T14:27:56.675Z,8.25
2022-11-16T14:30:32.535Z,9.02
2022-11-16T14:32:59.856Z,6.18
2022-11-16T14:35:39.514Z,7.90
2022-11-16T14:38:32.478Z,6.93
2022-11-16T14:41:04.868Z,10.80
2022-11-16T14:43:44.500Z,8.60
2022-11-16T14:46:35.947Z,6.18
2022-11-16T14:49:04.900Z,9.48
2022-11-16T14:51:56.762Z,8.18
2022-11-16T14:54:55.595Z,6.57
2022-11-16T14:57:24.243Z,8.88
2022-11-16T15:00:26.932Z,10.27
2022-11-16T15:03:02.068Z,8.25
2022-11-16T15:05:36.573Z,10.38
2022-11-16T15:08:26.400Z,10.00
2022-11-16T15:10:53.704Z,8.40
2022-11-16T15:13:25.164Z,8.02
2022-11-16T15:16:31.012Z,9.02
2022-11-16T15:19:01.781Z,11.20
2022-11-16T15:21:29.512Z,10.13
2022-11-16T15:26:44.092Z,16.15
2022-11-16T15:29:20.881Z,12.10
2022-11-16T15:31:49.281Z,15.65
2022-11-16T15:34:20.657Z,14.85
2022-11-16T15:36:48.750Z,9.07
2022-11-16T15:39:36.428Z,12.30
2022-11-16T15:42:04.504Z,14.40
2022-11-16T15:44:33.974Z,12.63
2022-11-16T15:47:03.798Z,13.75
2022-11-16T15:49:40.723Z,12.85
2022-11-16T15:52:08.207Z,16.15
2022-11-16T15:54:55.776Z,15.00
2022-11-16T15:59:56.838Z,10.18
2022-11-16T16:02:31.609Z,9.98
2022-11-16T16:04:58.788Z,10.68
2022-11-16T16:07:43.142Z,7.82
2022-11-16T16:10:19.509Z,8.10
2022-11-16T16:13:01.826Z,8.35
2022-11-16T16:15:34.778Z,8.20
2022-11-16T16:18:12.161Z,9.25
2022-11-16T16:20:39.389Z,8.05
2022-11-16T16:23:13.455Z,11.90
2022-11-16T16:25:42.035Z,9.45
2022-11-16T16:28:12.572Z,9.25
2022-11-16T16:30:39.812Z,11.52
2022-11-16T16:33:07.255Z,6.07
2022-11-16T16:35:34.621Z,6.50
2022-11-16T16:38:01.888Z,6.40
2022-11-16T16:40:29.733Z,9.57
2022-11-16T16:42:58.029Z,9.70
2022-11-16T16:45:41.829Z,10.85
2022-11-16T16:48:12.614Z,9.48
2022-11-16T16:50:40.138Z,9.75
2022-11-16T16:53:10.497Z,7.88
2022-11-16T16:55:37.908Z,9.52
2022-11-16T16:58:06.296Z,9.77
2022-11-16T17:00:33.910Z,9.23
2022-11-16T17:03:01.181Z,8.40
2022-11-16T17:05:30.795Z,8.15
2022-11-16T17:07:57.968Z,8.75
2022-11-16T17:10:25.170Z,6.88
2022-11-16T17:12:57.189Z,7.93
2022-11-16T17:15:24.941Z,11.82
2022-11-16T17:17:52.197Z,7.65
2022-11-16T17:20:19.593Z,8.60
2022-11-16T17:22:46.825Z,8.25
2022-11-16T17:25:14.941Z,8.50
2022-11-16T17:27:42.212Z,6.68
2022-11-16T17:30:10.756Z,9.27
2022-11-16T17:32:37.945Z,7.43
2022-11-16T17:35:05.638Z,7.82
2022-11-16T17:37:32.855Z,6.75
2022-11-16T17:40:00.094Z,10.45
2022-11-16T17:42:27.367Z,10.43
2022-11-16T17:44:55.146Z,10.35
2022-11-16T17:47:22.305Z,10.38
2022-11-16T17:49:49.469Z,6.43
2022-11-16T17:52:16.763Z,7.22
2022-11-16T17:54:43.929Z,5.57
2022-11-16T17:57:11.472Z,11.27
2022-11-16T17:59:38.649Z,5.55
2022-11-16T18:02:05.836Z,7.57
2022-11-16T18:04:32.982Z,9.27
2022-11-16T18:07:01.109Z,7.60
2022-11-16T18:09:28.492Z,8.38
2022-11-16T18:11:55.766Z,8.13
2022-11-16T18:14:22.965Z,5.22
2022-11-16T18:16:50.132Z,6.65
2022-11-16T18:19:19.879Z,7.10
2022-11-16T18:21:48.769Z,7.85
2022-11-16T18:24:16.314Z,8.32
2022-11-16T18:26:43.706Z,8.88
2022-11-16T18:29:15.361Z,5.20
2022-11-16T18:31:42.854Z,6.78
2022-11-16T18:34:14.523Z,5.60
2022-11-16T18:36:41.935Z,5.00
2022-11-16T18:39:09.151Z,7.53
2022-11-16T18:41:36.421Z,5.03
2022-11-16T18:44:03.898Z,4.10
2022-11-16T18:46:33.132Z,6.50
2022-11-16T18:49:00.993Z,5.72
2022-11-16T18:51:30.587Z,9.98
2022-11-16T18:53:57.987Z,6.10
2022-11-16T18:56:25.576Z,4.50
2022-11-16T18:58:53.706Z,4.18
2022-11-16T19:01:26.209Z,8.55
2022-11-16T19:03:55.858Z,5.18
2022-11-16T19:06:23.886Z,7.10
2022-11-16T19:08:59.614Z,7.75
2022-11-16T19:11:28.710Z,8.98
2022-11-16T19:14:07.800Z,4.80
2022-11-16T19:16:35.946Z,8.15
2022-11-16T19:19:04.932Z,4.47
2022-11-16T19:21:32.200Z,5.68
2022-11-16T19:23:59.439Z,7.72
2022-11-16T19:26:27.996Z,8.40
2022-11-16T19:28:55.882Z,8.73
2022-11-16T19:31:28.865Z,9.82
2022-11-16T19:34:10.687Z,7.50
2022-11-16T19:36:37.952Z,6.32
2022-11-16T19:39:05.931Z,5.10
2022-11-16T19:41:33.338Z,7.70
2022-11-16T19:44:01.787Z,8.20
2022-11-16T19:46:32.909Z,5.30
2022-11-16T19:49:01.192Z,8.70
2022-11-16T19:51:32.272Z,4.10
2022-11-16T19:54:03.132Z,4.10
2022-11-16T19:56:30.802Z,6.35
2022-11-16T19:58:58.211Z,4.32
2022-11-16T20:01:29.092Z,3.85
2022-11-16T20:04:02.436Z,7.45
2022-11-16T20:06:38.967Z,6.43
2022-11-16T20:09:11.947Z,5.30
2022-11-16T20:11:41.562Z,4.45
2022-11-16T20:14:11.800Z,3.45
2022-11-16T20:16:43.685Z,8.68
2022-11-16T20:19:11.562Z,4.93
2022-11-16T20:21:42.815Z,8.77
2022-11-16T20:24:16.287Z,7.25
2022-11-16T20:26:48.146Z,6.70
2022-11-16T20:29:18.570Z,8.48
2022-11-16T20:31:46.976Z,9.98
2022-11-16T20:34:17.463Z,6.15
2022-11-16T20:36:49.690Z,8.70
2022-11-16T20:39:21.353Z,4.65
2022-11-16T20:41:49.358Z,5.13
2022-11-16T20:44:21.078Z,6.88
2022-11-16T20:46:50.626Z,6.40
2022-11-16T20:49:17.969Z,8.38
2022-11-16T20:51:47.572Z,4.45
2022-11-16T20:54:15.136Z,6.95
2022-11-16T20:56:42.498Z,5.95
2022-11-16T20:59:09.684Z,5.53
2022-11-16T21:01:36.969Z,4.90
2022-11-16T21:04:05.720Z,8.50
2022-11-16T21:06:33.625Z,6.55
2022-11-16T21:09:01.799Z,7.00
2022-11-16T21:11:52.871Z,4.70
2022-11-16T21:14:20.649Z,5.78
2022-11-16T21:16:47.983Z,5.00
2022-11-16T21:19:17.753Z,4.35
2022-11-16T21:21:44.931Z,6.38
2022-11-16T21:24:12.382Z,3.42
2022-11-16T21:26:39.654Z,3.45
2022-11-16T21:29:06.969Z,4.95
2022-11-16T21:31:36.667Z,6.53
2022-11-16T21:34:05.816Z,8.18
2022-11-16T21:36:33.992Z,5.13
2022-11-16T21:39:01.655Z,6.00
2022-11-16T21:41:29.401Z,5.28
2022-11-16T21:43:56.984Z,5.63
2022-11-16T21:46:26.842Z,6.90
2022-11-16T21:48:56.674Z,7.18
2022-11-16T21:51:27.247Z,6.32
2022-11-16T21:53:55.598Z,3.70
2022-11-16T21:56:26.201Z,8.60
2022-11-16T21:58:54.596Z,3.95
2022-11-16T22:01:43.685Z,6.75
2022-11-16T22:04:29.721Z,5.00
2022-11-16T22:07:15.701Z,4.93
2022-11-16T22:09:42.944Z,8.23
2022-11-16T22:12:10.162Z,4.22
2022-11-16T22:14:37.377Z,6.88
2022-11-16T22:17:04.566Z,9.25
2022-11-16T22:19:31.801Z,9.05
2022-11-16T22:21:59.429Z,6.75
2022-11-16T22:24:26.680Z,7.85
2022-11-16T22:26:53.914Z,7.78
2022-11-16T22:29:21.129Z,4.75
2022-11-16T22:31:48.318Z,5.18
2022-11-16T22:34:15.494Z,6.75
2022-11-16T22:36:42.692Z,6.80
2022-11-16T22:39:10.028Z,6.43
2022-11-16T22:41:37.246Z,8.35
2022-11-16T22:44:04.760Z,7.88
2022-11-16T22:46:32.018Z,7.80
2022-11-16T22:48:59.674Z,8.85
2022-11-16T22:51:30.069Z,6.60
2022-11-16T22:54:11.329Z,5.20
2022-11-16T22:56:39.250Z,6.60
2022-11-16T22:59:06.700Z,9.00
2022-11-16T23:01:36.238Z,5.35
2022-11-16T23:04:03.516Z,5.40
2022-11-16T23:06:31.107Z,8.23
2022-11-16T23:08:58.541Z,10.48
2022-11-16T23:11:45.984Z,9.90
2022-11-16T23:14:36.110Z,9.40
2022-11-16T23:17:04.536Z,9.20
2022-11-16T23:19:50.525Z,6.28
2022-11-16T23:22:40.225Z,6.40
2022-11-16T23:25:33.681Z,9.40
2022-11-16T23:28:14.331Z,7.07
2022-11-16T23:30:41.774Z,9.88
2022-11-16T23:33:10.624Z,11.63
2022-11-16T23:35:38.074Z,8.15
2022-11-16T23:38:07.863Z,8.40
2022-11-16T23:40:40.241Z,13.25
2022-11-16T23:43:29.146Z,9.40
2022-11-16T23:45:56.373Z,10.02
2022-11-16T23:48:23.548Z,10.40
2022-11-16T23:50:50.959Z,11.93
2022-11-16T23:53:18.161Z,8.95
2022-11-16T23:55:45.345Z,9.68
2022-11-16T23:58:15.165Z,10.88
